createdAt,value
2022-08-24T00:01:36.450Z,16.70
2022-08-24T00:04:08.305Z,16.30
2022-08-24T00:06:42.311Z,16.40
2022-08-24T00:09:14.014Z,15.70
2022-08-24T00:11:46.303Z,18.60
2022-08-24T00:14:18.093Z,18.10
2022-08-24T00:16:49.963Z,16.40
2022-08-24T00:19:21.812Z,15.60
2022-08-24T00:21:53.561Z,15.70
2022-08-24T00:24:25.382Z,16.50
2022-08-24T00:26:57.165Z,15.10
2022-08-24T00:29:28.883Z,16.00
2022-08-24T00:32:00.874Z,15.40
2022-08-24T00:34:33.098Z,14.60
2022-08-24T00:37:05.502Z,14.50
2022-08-24T00:39:37.143Z,14.10
2022-08-24T00:42:09.952Z,14.00
2022-08-24T00:44:41.937Z,14.10
2022-08-24T00:47:19.047Z,13.30
2022-08-24T00:49:57.155Z,14.00
2022-08-24T00:52:33.849Z,15.00
2022-08-24T00:55:11.680Z,13.50
2022-08-24T00:57:47.839Z,13.90
2022-08-24T01:00:24.473Z,13.50
2022-08-24T01:03:01.576Z,13.90
2022-08-24T01:05:33.728Z,14.70
2022-08-24T01:08:07.668Z,16.00
2022-08-24T01:10:42.526Z,13.20
2022-08-24T01:13:15.814Z,14.50
2022-08-24T01:15:51.179Z,14.70
2022-08-24T01:18:44.020Z,15.20
2022-08-24T01:21:19.673Z,14.90
2022-08-24T01:23:54.580Z,15.00
2022-08-24T01:26:29.891Z,16.40
2022-08-24T01:29:07.197Z,15.40
2022-08-24T01:31:39.885Z,15.10
2022-08-24T01:34:13.039Z,16.30
2022-08-24T01:36:47.948Z,16.50
2022-08-24T01:39:23.483Z,17.70
2022-08-24T01:41:55.865Z,19.70
2022-08-24T01:46:59.594Z,20.10
2022-08-24T01:49:34.646Z,19.80
2022-08-24T01:52:07.997Z,21.00
2022-08-24T01:54:43.510Z,21.80
2022-08-24T01:57:17.763Z,18.90
2022-08-24T01:59:49.915Z,20.10
2022-08-24T02:02:26.363Z,20.00
2022-08-24T02:04:58.189Z,21.50
2022-08-24T02:10:01.554Z,20.80
2022-08-24T02:12:36.440Z,20.30
2022-08-24T02:15:11.509Z,21.40
2022-08-24T02:17:43.353Z,20.20
2022-08-24T02:20:16.041Z,21.80
2022-08-24T02:22:47.750Z,21.70
2022-08-24T02:25:21.453Z,20.70
2022-08-24T02:27:53.457Z,20.80
2022-08-24T02:30:25.436Z,22.00
2022-08-24T02:32:57.416Z,19.40
2022-08-24T02:35:31.465Z,19.10
2022-08-24T02:38:03.606Z,20.00
2022-08-24T02:40:35.488Z,19.50
2022-08-24T02:43:07.623Z,19.30
2022-08-24T02:45:42.566Z,20.30
2022-08-24T02:48:15.316Z,19.80
2022-08-24T02:50:50.994Z,20.20
2022-08-24T02:53:24.612Z,19.90
2022-08-24T02:55:56.300Z,19.20
2022-08-24T02:58:28.037Z,22.00
2022-08-24T03:00:59.752Z,18.40
2022-08-24T03:03:33.645Z,18.20
2022-08-24T03:06:06.045Z,19.00
2022-08-24T03:08:39.821Z,18.80
2022-08-24T03:11:11.980Z,17.00
2022-08-24T03:13:43.741Z,16.60
2022-08-24T03:16:16.283Z,16.80
2022-08-24T03:18:48.790Z,16.60
2022-08-24T03:21:21.018Z,16.00
2022-08-24T03:23:52.955Z,18.20
2022-08-24T03:28:57.045Z,16.80
2022-08-24T03:31:30.817Z,18.00
2022-08-24T03:34:03.150Z,18.50
2022-08-24T03:36:34.880Z,17.40
2022-08-24T03:39:06.877Z,18.10
2022-08-24T03:41:38.706Z,18.10
2022-08-24T03:44:10.827Z,18.40
2022-08-24T03:46:42.715Z,18.20
2022-08-24T03:49:15.866Z,16.80
2022-08-24T03:51:49.922Z,17.50
2022-08-24T03:54:23.400Z,17.30
2022-08-24T03:56:56.460Z,18.30
2022-08-24T03:59:29.587Z,18.00
2022-08-24T04:02:02.722Z,17.40
2022-08-24T04:04:34.516Z,16.50
2022-08-24T04:09:37.681Z,17.50
2022-08-24T04:12:10.102Z,16.60
2022-08-24T04:14:42.508Z,17.50
2022-08-24T04:17:18.841Z,18.30
2022-08-24T04:19:58.429Z,19.20
2022-08-24T04:22:35.428Z,18.80
2022-08-24T04:25:11.300Z,20.20
2022-08-24T04:27:43.964Z,18.60
2022-08-24T04:30:16.836Z,19.50
2022-08-24T04:33:04.817Z,19.00
2022-08-24T04:35:40.472Z,18.40
2022-08-24T04:38:12.629Z,21.00
2022-08-24T04:40:49.015Z,21.10
2022-08-24T04:43:21.773Z,21.60
2022-08-24T04:45:53.659Z,21.50
2022-08-24T04:48:25.825Z,21.10
2022-08-24T04:51:02.884Z,22.30
2022-08-24T04:53:35.202Z,24.10
2022-08-24T04:56:11.643Z,24.30
2022-08-24T04:58:44.756Z,25.40
2022-08-24T05:01:19.721Z,24.60
2022-08-24T05:03:55.150Z,24.80
2022-08-24T05:06:29.437Z,25.50
2022-08-24T05:09:02.388Z,27.60
2022-08-24T05:11:37.159Z,26.40
2022-08-24T05:14:11.228Z,25.20
2022-08-24T05:16:45.845Z,24.30
2022-08-24T05:19:25.827Z,24.10
2022-08-24T05:21:57.842Z,22.70
2022-08-24T05:24:30.132Z,25.30
2022-08-24T05:27:02.088Z,23.00
2022-08-24T05:29:34.802Z,25.30
2022-08-24T05:32:07.357Z,23.50
2022-08-24T05:34:39.811Z,23.30
2022-08-24T05:37:11.768Z,22.60
2022-08-24T05:39:56.032Z,22.60
2022-08-24T05:42:27.882Z,24.20
2022-08-24T05:44:59.936Z,24.50
2022-08-24T05:47:31.842Z,21.50
2022-08-24T05:50:10.260Z,21.20
2022-08-24T05:52:42.067Z,21.80
2022-08-24T05:55:14.632Z,20.00
2022-08-24T05:57:46.678Z,19.10
2022-08-24T06:00:25.799Z,19.40
2022-08-24T06:02:57.776Z,17.80
2022-08-24T06:05:29.797Z,18.80
2022-08-24T06:08:02.132Z,18.60
2022-08-24T06:10:40.303Z,19.20
2022-08-24T06:13:12.929Z,20.60
2022-08-24T06:15:59.376Z,20.20
2022-08-24T06:18:37.781Z,21.60
2022-08-24T06:21:13.011Z,23.60
2022-08-24T06:23:48.050Z,23.00
2022-08-24T06:26:38.342Z,21.20
2022-08-24T06:29:10.743Z,22.20
2022-08-24T06:31:54.638Z,21.80
2022-08-24T06:34:28.745Z,21.50
2022-08-24T06:37:01.998Z,22.30
2022-08-24T06:39:33.760Z,20.70
2022-08-24T06:42:08.363Z,20.90
2022-08-24T06:44:40.068Z,18.70
2022-08-24T06:47:17.985Z,19.60
2022-08-24T06:49:49.880Z,17.40
2022-08-24T06:52:21.769Z,17.70
2022-08-24T06:54:54.038Z,16.10
2022-08-24T06:57:25.850Z,15.90
2022-08-24T06:59:58.414Z,14.40
2022-08-24T07:02:30.526Z,15.50
2022-08-24T07:05:02.272Z,15.60
2022-08-24T07:07:52.463Z,14.50
2022-08-24T07:10:25.692Z,13.20
2022-08-24T07:13:00.825Z,16.00
2022-08-24T07:15:32.683Z,14.40
2022-08-24T07:18:14.878Z,14.60
2022-08-24T07:20:50.422Z,14.20
2022-08-24T07:23:56.028Z,13.30
2022-08-24T07:26:31.402Z,14.30
2022-08-24T07:29:06.283Z,14.30
2022-08-24T07:31:46.091Z,15.00
2022-08-24T07:34:24.629Z,13.30
2022-08-24T07:36:56.668Z,14.10
2022-08-24T07:39:28.629Z,13.60
2022-08-24T07:42:25.312Z,13.80
2022-08-24T07:44:54.201Z,14.30
2022-08-24T07:47:49.518Z,14.10
2022-08-24T07:50:35.484Z,12.60
2022-08-24T07:53:09.772Z,13.50
2022-08-24T07:55:46.157Z,12.10
2022-08-24T07:58:18.320Z,12.20
2022-08-24T08:00:50.616Z,13.40
2022-08-24T08:05:59.138Z,13.60
2022-08-24T08:08:33.036Z,12.50
2022-08-24T08:11:07.167Z,12.30
2022-08-24T08:16:16.691Z,12.20
2022-08-24T08:18:56.323Z,11.90
2022-08-24T08:21:55.367Z,11.70
2022-08-24T08:24:27.307Z,10.80
2022-08-24T08:27:00.309Z,11.50
2022-08-24T08:29:39.531Z,10.20
2022-08-24T08:32:14.710Z,10.50
2022-08-24T08:34:47.594Z,12.30
2022-08-24T08:39:50.918Z,11.30
2022-08-24T08:42:39.153Z,11.30
2022-08-24T08:45:45.831Z,10.70
2022-08-24T08:49:19.562Z,11.50
2022-08-24T08:52:07.820Z,11.80
2022-08-24T08:54:50.215Z,11.20
2022-08-24T08:57:40.685Z,12.50
2022-08-24T09:00:18.240Z,11.20
2022-08-24T09:03:11.870Z,11.20
2022-08-24T09:06:07.192Z,12.50
2022-08-24T09:08:54.260Z,11.40
2022-08-24T09:11:37.361Z,12.80
2022-08-24T09:14:48.615Z,12.40
2022-08-24T09:17:34.869Z,12.80
2022-08-24T09:20:24.201Z,12.90
2022-08-24T09:23:09.150Z,12.00
2022-08-24T09:25:51.412Z,12.20
2022-08-24T09:28:41.434Z,12.80
2022-08-24T09:31:43.611Z,11.60
2022-08-24T09:34:28.751Z,12.00
2022-08-24T09:39:57.280Z,11.10
2022-08-24T09:43:01.025Z,11.40
2022-08-24T09:46:05.952Z,11.40
2022-08-24T09:48:56.962Z,10.80
2022-08-24T09:51:54.695Z,10.50
2022-08-24T09:54:54.436Z,10.80
2022-08-24T10:00:40.135Z,9.50
2022-08-24T10:03:41.992Z,10.60
2022-08-24T10:06:38.248Z,10.20
2022-08-24T10:09:40.623Z,9.20
2022-08-24T10:12:24.053Z,9.20
2022-08-24T10:15:01.095Z,9.00
2022-08-24T10:17:48.349Z,8.90
2022-08-24T10:20:25.205Z,9.10
2022-08-24T10:23:37.245Z,9.00
2022-08-24T10:26:17.383Z,8.90
2022-08-24T10:29:09.466Z,8.30
2022-08-24T10:31:52.952Z,8.80
2022-08-24T10:34:43.525Z,7.80
2022-08-24T10:37:31.485Z,7.90
2022-08-24T10:40:36.668Z,9.50
2022-08-24T10:43:36.958Z,7.70
2022-08-24T10:46:34.274Z,7.80
2022-08-24T10:49:30.544Z,8.10
2022-08-24T10:52:21.492Z,7.70
2022-08-24T10:54:53.807Z,7.80
2022-08-24T10:57:34.170Z,7.80
2022-08-24T11:00:11.703Z,7.90
2022-08-24T11:03:05.504Z,7.60
2022-08-24T11:05:46.670Z,9.20
2022-08-24T11:08:25.438Z,8.90
2022-08-24T11:11:10.654Z,7.30
2022-08-24T11:13:53.950Z,7.90
2022-08-24T11:16:32.890Z,7.20
2022-08-24T11:19:09.635Z,8.20
2022-08-24T11:21:49.186Z,8.10
2022-08-24T11:24:40.340Z,8.80
2022-08-24T11:27:25.812Z,9.30
2022-08-24T11:30:02.976Z,8.40
2022-08-24T11:32:41.202Z,8.50
2022-08-24T11:35:25.099Z,9.80
2022-08-24T11:38:04.246Z,9.30
2022-08-24T11:40:43.315Z,8.40
2022-08-24T11:43:30.153Z,8.70
2022-08-24T11:46:15.411Z,9.10
2022-08-24T11:49:01.599Z,8.20
2022-08-24T11:51:42.493Z,8.50
2022-08-24T11:54:25.178Z,8.20
2022-08-24T11:57:09.197Z,9.20
2022-08-24T11:59:51.942Z,9.20
2022-08-24T12:02:32.314Z,8.60
2022-08-24T12:05:14.267Z,8.50
2022-08-24T12:07:56.789Z,8.50
2022-08-24T12:10:39.779Z,9.40
2022-08-24T12:13:21.774Z,8.60
2022-08-24T12:16:02.386Z,7.70
2022-08-24T12:18:47.374Z,8.60
2022-08-24T12:21:22.918Z,8.20
2022-08-24T12:24:00.073Z,9.70
2022-08-24T12:26:38.178Z,8.80
2022-08-24T12:29:14.027Z,9.10
2022-08-24T12:31:51.345Z,8.40
2022-08-24T12:34:29.220Z,8.70
2022-08-24T12:37:10.685Z,9.70
2022-08-24T12:39:55.999Z,8.70
2022-08-24T12:42:35.502Z,8.80
2022-08-24T12:45:11.442Z,8.50
2022-08-24T12:47:50.304Z,8.20
2022-08-24T12:50:30.215Z,8.90
2022-08-24T12:53:22.451Z,8.90
2022-08-24T12:56:08.324Z,9.90
2022-08-24T12:58:56.177Z,9.00
2022-08-24T13:01:33.588Z,9.40
2022-08-24T13:04:13.558Z,9.00
2022-08-24T13:06:53.373Z,8.70
2022-08-24T13:09:35.722Z,9.60
2022-08-24T13:12:45.052Z,8.90
2022-08-24T13:15:47.928Z,9.10
2022-08-24T13:21:57.197Z,11.70
2022-08-24T13:25:02.013Z,8.70
2022-08-24T13:28:12.762Z,9.20
2022-08-24T13:31:12.521Z,9.00
2022-08-24T13:33:48.625Z,9.40
2022-08-24T13:36:57.105Z,9.20
2022-08-24T13:39:52.656Z,9.80
2022-08-24T13:42:41.356Z,7.70
2022-08-24T13:45:24.384Z,8.50
2022-08-24T13:48:09.324Z,8.20
2022-08-24T13:50:59.776Z,8.40
2022-08-24T13:53:54.568Z,9.50
2022-08-24T13:56:45.637Z,10.70
2022-08-24T13:59:23.381Z,8.40
2022-08-24T14:02:12.326Z,11.30
2022-08-24T14:04:56.091Z,9.20
2022-08-24T14:07:34.266Z,9.10
2022-08-24T14:10:15.226Z,9.70
2022-08-24T14:13:01.075Z,9.30
2022-08-24T14:15:48.932Z,8.80
2022-08-24T14:18:32.351Z,8.70
2022-08-24T14:21:11.808Z,8.60
2022-08-24T14:24:00.415Z,9.30
2022-08-24T14:27:06.986Z,8.80
2022-08-24T14:29:46.705Z,9.50
2022-08-24T14:32:32.805Z,8.30
2022-08-24T14:35:26.151Z,9.10
2022-08-24T14:38:10.611Z,9.10
2022-08-24T14:41:03.710Z,8.80
2022-08-24T14:43:51.005Z,9.10
2022-08-24T14:46:33.527Z,8.90
2022-08-24T14:49:19.597Z,8.90
2022-08-24T14:52:01.928Z,9.70
2022-08-24T14:54:45.447Z,9.30
2022-08-24T14:57:32.755Z,12.40
2022-08-24T15:00:13.700Z,8.70
2022-08-24T15:03:15.840Z,9.90
2022-08-24T15:06:25.685Z,11.20
2022-08-24T15:09:06.128Z,10.00
2022-08-24T15:11:40.597Z,10.20
2022-08-24T15:14:22.809Z,10.60
2022-08-24T15:17:02.613Z,10.10
2022-08-24T15:19:44.515Z,10.30
2022-08-24T15:22:27.907Z,10.60
2022-08-24T15:25:08.382Z,10.90
2022-08-24T15:27:46.569Z,11.80
2022-08-24T15:30:25.999Z,10.90
2022-08-24T15:33:09.680Z,11.50
2022-08-24T15:35:43.947Z,11.10
2022-08-24T15:38:25.411Z,11.40
2022-08-24T15:41:08.058Z,11.10
2022-08-24T15:43:45.516Z,13.60
2022-08-24T15:46:22.844Z,11.90
2022-08-24T15:49:02.473Z,11.50
2022-08-24T15:51:45.973Z,12.50
2022-08-24T15:54:30.438Z,11.50
2022-08-24T15:57:04.331Z,11.50
2022-08-24T15:59:49.676Z,10.30
2022-08-24T16:02:35.742Z,10.90
2022-08-24T16:05:21.783Z,11.10
2022-08-24T16:08:16.338Z,11.20
2022-08-24T16:10:50.480Z,11.40
2022-08-24T16:13:30.331Z,11.90
2022-08-24T16:16:06.130Z,12.50
2022-08-24T16:18:53.740Z,11.40
2022-08-24T16:21:32.678Z,10.70
2022-08-24T16:24:12.177Z,12.10
2022-08-24T16:27:01.556Z,13.00
2022-08-24T16:29:55.999Z,12.70
2022-08-24T16:32:38.330Z,11.50
2022-08-24T16:35:25.477Z,11.70
2022-08-24T16:37:57.651Z,11.50
2022-08-24T16:40:30.548Z,11.70
2022-08-24T16:43:02.605Z,10.80
2022-08-24T16:45:36.102Z,11.50
2022-08-24T16:48:08.384Z,10.50
2022-08-24T16:50:40.382Z,13.10
2022-08-24T16:53:12.342Z,10.90
2022-08-24T16:55:44.349Z,11.70
2022-08-24T16:58:16.436Z,11.10
2022-08-24T17:00:48.138Z,12.60
2022-08-24T17:03:19.856Z,11.40
2022-08-24T17:05:51.808Z,12.60
2022-08-24T17:08:23.605Z,12.30
2022-08-24T17:10:55.631Z,12.20
2022-08-24T17:13:48.360Z,12.00
2022-08-24T17:16:20.983Z,12.20
2022-08-24T17:18:52.685Z,11.80
2022-08-24T17:21:24.406Z,14.70
2022-08-24T17:23:56.160Z,12.70
2022-08-24T17:26:28.878Z,14.30
2022-08-24T17:29:03.489Z,13.00
2022-08-24T17:31:35.756Z,11.70
2022-08-24T17:34:08.529Z,12.90
2022-08-24T17:36:41.555Z,12.80
2022-08-24T17:39:17.561Z,11.50
2022-08-24T17:41:49.984Z,11.30
2022-08-24T17:46:58.888Z,12.50
2022-08-24T17:49:33.492Z,12.20
2022-08-24T17:52:05.732Z,11.40
2022-08-24T17:54:37.695Z,12.80
2022-08-24T17:57:11.826Z,14.00
2022-08-24T17:59:44.593Z,12.40
2022-08-24T18:02:16.254Z,12.00
2022-08-24T18:04:50.305Z,12.40
2022-08-24T18:07:42.205Z,11.80
2022-08-24T18:10:18.700Z,12.50
2022-08-24T18:12:50.537Z,12.30
2022-08-24T18:15:35.457Z,12.60
2022-08-24T18:18:10.252Z,13.00
2022-08-24T18:20:42.983Z,13.80
2022-08-24T18:23:15.010Z,12.60
2022-08-24T18:25:54.181Z,13.10
2022-08-24T18:28:26.187Z,12.50
2022-08-24T18:30:58.320Z,12.50
2022-08-24T18:33:30.098Z,13.20
2022-08-24T18:36:02.186Z,13.70
2022-08-24T18:38:33.955Z,13.00
2022-08-24T18:41:06.180Z,12.50
2022-08-24T18:43:38.062Z,13.20
2022-08-24T18:46:11.056Z,13.30
2022-08-24T18:48:42.953Z,13.40
2022-08-24T18:51:17.745Z,12.80
2022-08-24T18:53:50.686Z,14.80
2022-08-24T18:56:25.060Z,16.70
2022-08-24T18:58:58.280Z,18.50
2022-08-24T19:01:32.437Z,15.60
2022-08-24T19:04:13.461Z,15.90
2022-08-24T19:06:47.272Z,15.40
2022-08-24T19:09:20.118Z,14.90
2022-08-24T19:11:53.966Z,14.70
2022-08-24T19:14:27.247Z,15.30
2022-08-24T19:16:59.613Z,14.50
2022-08-24T19:19:34.708Z,15.20
2022-08-24T19:22:10.017Z,14.20
2022-08-24T19:24:45.109Z,14.80
2022-08-24T19:27:18.108Z,14.90
2022-08-24T19:29:56.409Z,14.60
2022-08-24T19:32:33.314Z,14.00
2022-08-24T19:35:06.047Z,14.80
2022-08-24T19:37:39.112Z,13.90
2022-08-24T19:40:12.799Z,14.60
2022-08-24T19:42:45.420Z,14.10
2022-08-24T19:48:08.614Z,13.50
2022-08-24T19:50:41.792Z,16.90
2022-08-24T19:53:15.516Z,14.70
2022-08-24T19:55:50.374Z,15.50
2022-08-24T19:58:30.233Z,15.30
2022-08-24T20:01:06.125Z,14.80
2022-08-24T20:03:38.156Z,16.50
2022-08-24T20:06:10.376Z,14.90
2022-08-24T20:08:42.793Z,17.50
2022-08-24T20:11:15.130Z,15.50
2022-08-24T20:13:47.468Z,15.60
2022-08-24T20:16:24.388Z,15.80
2022-08-24T20:18:56.387Z,16.00
2022-08-24T20:21:30.116Z,16.50
2022-08-24T20:24:02.890Z,16.00
2022-08-24T20:26:41.420Z,15.90
2022-08-24T20:29:14.401Z,17.70
2022-08-24T20:31:50.677Z,15.70
2022-08-24T20:34:24.329Z,14.20
2022-08-24T20:36:56.563Z,15.30
2022-08-24T20:39:29.194Z,15.50
2022-08-24T20:42:00.934Z,14.50
2022-08-24T20:44:32.966Z,16.60
2022-08-24T20:47:04.956Z,15.90
2022-08-24T20:49:37.778Z,14.90
2022-08-24T20:52:09.863Z,16.30
2022-08-24T20:54:42.432Z,16.90
2022-08-24T20:57:18.247Z,15.00
2022-08-24T20:59:49.999Z,14.60
2022-08-24T21:02:21.879Z,16.40
2022-08-24T21:04:53.548Z,16.30
2022-08-24T21:07:25.323Z,15.50
2022-08-24T21:09:57.481Z,15.20
2022-08-24T21:12:32.585Z,15.30
2022-08-24T21:15:05.050Z,14.60
2022-08-24T21:20:09.285Z,15.50
2022-08-24T21:22:41.048Z,14.80
2022-08-24T21:25:14.575Z,16.10
2022-08-24T21:27:48.035Z,16.40
2022-08-24T21:30:22.179Z,15.50
2022-08-24T21:33:11.868Z,14.90
2022-08-24T21:35:45.397Z,15.20
2022-08-24T21:38:22.324Z,14.90
2022-08-24T21:40:54.630Z,15.20
2022-08-24T21:43:26.497Z,15.30
2022-08-24T21:45:58.644Z,13.90
2022-08-24T21:48:30.328Z,15.30
2022-08-24T21:51:02.017Z,15.70
2022-08-24T21:53:33.854Z,16.00
2022-08-24T21:56:07.411Z,15.00
2022-08-24T21:58:39.158Z,15.10
2022-08-24T22:01:11.230Z,15.70
2022-08-24T22:03:43.086Z,15.00
2022-08-24T22:06:15.111Z,15.40
2022-08-24T22:08:46.925Z,15.60
2022-08-24T22:11:24.575Z,16.60
2022-08-24T22:13:56.707Z,16.50
2022-08-24T22:19:00.034Z,16.20
2022-08-24T22:24:08.910Z,16.10
2022-08-24T22:26:41.480Z,16.30
2022-08-24T22:29:14.198Z,16.10
2022-08-24T22:34:19.729Z,16.20
2022-08-24T22:36:53.912Z,16.40
2022-08-24T22:41:56.054Z,17.90
2022-08-24T22:44:29.002Z,15.10
2022-08-24T22:47:03.468Z,17.10
2022-08-24T22:49:43.510Z,16.40
2022-08-24T22:52:16.618Z,14.90
2022-08-24T22:54:48.276Z,16.00
2022-08-24T22:57:21.035Z,16.00
2022-08-24T22:59:52.672Z,16.20
2022-08-24T23:02:24.643Z,18.20
2022-08-24T23:04:57.328Z,17.10
2022-08-24T23:07:29.221Z,16.90
2022-08-24T23:10:01.247Z,17.20
2022-08-24T23:12:33.150Z,17.10
2022-08-24T23:15:05.260Z,17.20
2022-08-24T23:17:36.941Z,16.80
2022-08-24T23:20:10.379Z,18.80
2022-08-24T23:22:43.981Z,17.10
2022-08-24T23:25:16.134Z,17.70
2022-08-24T23:27:50.043Z,17.10
2022-08-24T23:30:22.768Z,17.10
2022-08-24T23:32:54.490Z,16.70
2022-08-24T23:35:26.187Z,16.30
2022-08-24T23:37:57.894Z,14.90
2022-08-24T23:40:29.927Z,16.60
2022-08-24T23:43:01.807Z,17.30
2022-08-24T23:45:33.628Z,16.80
2022-08-24T23:48:06.276Z,17.20
2022-08-24T23:50:37.956Z,17.10
2022-08-24T23:53:09.801Z,15.80
2022-08-24T23:55:41.544Z,17.00
2022-08-24T23:58:13.555Z,16.70
